Bangor, Michigan
Current Conditions -  °F | °C
As of 8:35 PM on Wednesday 22 Oct 2014 (Local Time) from KLWA Reporting Station
Clear Clear  
Wind Chill: 39°   Ceiling: Unl
Heat Index: 39°   Visibility: 10mi
Dew Point: 36°   Wind: 0mph
Humidity: 91%   Direction: NA
Pressure: 30.29"   Gusts: NA
Location:  42.31°N, 86.11°W
Report Text: KLWA 230035Z AUTO 00000KT 10SM CLR 04/02 A3029 RMK AO2 T00370024
Loading
Personal Weather Stations






























Interactive Weather Map
Tropical Storm Tracking
New forecast layout! Learn more

10-Day Weather Forecast

Advertisements
Track Severe Weather on mobile